<?xml version="1.0" encoding="UTF-8" standalone="no" ?>
<gpx xmlns="http://www.topografix.com/GPX/1/1" xmlns:xsi="http://www.w3.org/2001/XMLSchema-instance" xsi:schemaLocation="http://www.topografix.com/GPX/1/1 http://www.topografix.com/GPX/1/1/gpx.xsd" version="1.1" creator="VisuGPX - https://www.visugpx.com">
  <metadata>
    <name>mont ouzon</name>
    <desc><![CDATA[Trace AlpineQuest 27/10/2019 11:20:11]]></desc>
  </metadata>
  <trk>
    <name><![CDATA[mont ouzon]]></name>
    <trkseg>
      <trkpt lat="46.27241" lon="6.62619">
        <ele>782.66998291016</ele>
        <time>2019-10-27T10:20:11Z</time>
      </trkpt>
      <trkpt lat="46.2725" lon="6.62606">
        <ele>786.09899902344</ele>
        <time>2019-10-27T10:20:20Z</time>
      </trkpt>
      <trkpt lat="46.27245" lon="6.62615">
        <ele>752.53698730469</ele>
        <time>2019-10-27T10:20:25Z</time>
      </trkpt>
      <trkpt lat="46.27252" lon="6.6261">
        <ele>751.81597900391</ele>
        <time>2019-10-27T10:20:40Z</time>
      </trkpt>
      <trkpt lat="46.27253" lon="6.626">
        <ele>748.98297119141</ele>
        <time>2019-10-27T10:20:48Z</time>
      </trkpt>
      <trkpt lat="46.27261" lon="6.62597">
        <ele>746.375</ele>
        <time>2019-10-27T10:20:55Z</time>
      </trkpt>
      <trkpt lat="46.27267" lon="6.62594">
        <ele>744.77697753906</ele>
        <time>2019-10-27T10:21:01Z</time>
      </trkpt>
      <trkpt lat="46.27274" lon="6.62589">
        <ele>743.53302001953</ele>
        <time>2019-10-27T10:21:06Z</time>
      </trkpt>
      <trkpt lat="46.27282" lon="6.62589">
        <ele>743.59301757812</ele>
        <time>2019-10-27T10:21:12Z</time>
      </trkpt>
      <trkpt lat="46.27289" lon="6.62587">
        <ele>743.55798339844</ele>
        <time>2019-10-27T10:21:18Z</time>
      </trkpt>
      <trkpt lat="46.27296" lon="6.62587">
        <ele>743.24401855469</ele>
        <time>2019-10-27T10:21:23Z</time>
      </trkpt>
      <trkpt lat="46.27304" lon="6.62583">
        <ele>741.86102294922</ele>
        <time>2019-10-27T10:21:31Z</time>
      </trkpt>
      <trkpt lat="46.2731" lon="6.62577">
        <ele>744.17901611328</ele>
        <time>2019-10-27T10:21:37Z</time>
      </trkpt>
      <trkpt lat="46.27317" lon="6.62572">
        <ele>744.31298828125</ele>
        <time>2019-10-27T10:21:43Z</time>
      </trkpt>
      <trkpt lat="46.27324" lon="6.62566">
        <ele>746.30603027344</ele>
        <time>2019-10-27T10:21:48Z</time>
      </trkpt>
      <trkpt lat="46.27774" lon="6.62485">
        <ele>747.95098876953</ele>
        <time>2019-10-27T10:30:10Z</time>
      </trkpt>
      <trkpt lat="46.27784" lon="6.62488">
        <ele>748.07202148438</ele>
        <time>2019-10-27T10:30:12Z</time>
      </trkpt>
      <trkpt lat="46.27791" lon="6.62488">
        <ele>748.30798339844</ele>
        <time>2019-10-27T10:30:15Z</time>
      </trkpt>
      <trkpt lat="46.27799" lon="6.62489">
        <ele>748.48297119141</ele>
        <time>2019-10-27T10:30:22Z</time>
      </trkpt>
      <trkpt lat="46.27807" lon="6.62487">
        <ele>753.8740234375</ele>
        <time>2019-10-27T10:30:38Z</time>
      </trkpt>
      <trkpt lat="46.27814" lon="6.62492">
        <ele>763.75299072266</ele>
        <time>2019-10-27T10:30:55Z</time>
      </trkpt>
      <trkpt lat="46.27822" lon="6.62493">
        <ele>773.22698974609</ele>
        <time>2019-10-27T10:31:03Z</time>
      </trkpt>
      <trkpt lat="46.2783" lon="6.6249">
        <ele>784.32397460938</ele>
        <time>2019-10-27T10:31:12Z</time>
      </trkpt>
      <trkpt lat="46.27837" lon="6.62488">
        <ele>793.86700439453</ele>
        <time>2019-10-27T10:31:26Z</time>
      </trkpt>
      <trkpt lat="46.27845" lon="6.6249">
        <ele>798.05401611328</ele>
        <time>2019-10-27T10:31:44Z</time>
      </trkpt>
      <trkpt lat="46.27852" lon="6.62492">
        <ele>799.43200683594</ele>
        <time>2019-10-27T10:31:50Z</time>
      </trkpt>
      <trkpt lat="46.27859" lon="6.62496">
        <ele>797.99700927734</ele>
        <time>2019-10-27T10:31:56Z</time>
      </trkpt>
      <trkpt lat="46.27866" lon="6.62501">
        <ele>784.50701904297</ele>
        <time>2019-10-27T10:32:03Z</time>
      </trkpt>
      <trkpt lat="46.27874" lon="6.62501">
        <ele>784.55999755859</ele>
        <time>2019-10-27T10:32:08Z</time>
      </trkpt>
      <trkpt lat="46.27881" lon="6.62503">
        <ele>786.91497802734</ele>
        <time>2019-10-27T10:32:13Z</time>
      </trkpt>
      <trkpt lat="46.27889" lon="6.62502">
        <ele>783.54699707031</ele>
        <time>2019-10-27T10:32:18Z</time>
      </trkpt>
      <trkpt lat="46.27896" lon="6.62499">
        <ele>789.54797363281</ele>
        <time>2019-10-27T10:32:24Z</time>
      </trkpt>
      <trkpt lat="46.279" lon="6.62488">
        <ele>789.46099853516</ele>
        <time>2019-10-27T10:32:30Z</time>
      </trkpt>
      <trkpt lat="46.27905" lon="6.62478">
        <ele>790.08197021484</ele>
        <time>2019-10-27T10:32:36Z</time>
      </trkpt>
      <trkpt lat="46.2791" lon="6.62469">
        <ele>794.67401123047</ele>
        <time>2019-10-27T10:32:42Z</time>
      </trkpt>
      <trkpt lat="46.27916" lon="6.62462">
        <ele>799.41101074219</ele>
        <time>2019-10-27T10:32:47Z</time>
      </trkpt>
      <trkpt lat="46.27923" lon="6.62458">
        <ele>800.14898681641</ele>
        <time>2019-10-27T10:32:52Z</time>
      </trkpt>
      <trkpt lat="46.2793" lon="6.62453">
        <ele>800.07000732422</ele>
        <time>2019-10-27T10:32:58Z</time>
      </trkpt>
      <trkpt lat="46.27936" lon="6.62447">
        <ele>799.00701904297</ele>
        <time>2019-10-27T10:33:04Z</time>
      </trkpt>
      <trkpt lat="46.27943" lon="6.62443">
        <ele>792.60601806641</ele>
        <time>2019-10-27T10:33:10Z</time>
      </trkpt>
      <trkpt lat="46.27951" lon="6.62444">
        <ele>789.90100097656</ele>
        <time>2019-10-27T10:33:17Z</time>
      </trkpt>
      <trkpt lat="46.27958" lon="6.62439">
        <ele>787.51202392578</ele>
        <time>2019-10-27T10:33:23Z</time>
      </trkpt>
      <trkpt lat="46.27966" lon="6.6244">
        <ele>784.22399902344</ele>
        <time>2019-10-27T10:33:29Z</time>
      </trkpt>
      <trkpt lat="46.27972" lon="6.62444">
        <ele>784.64202880859</ele>
        <time>2019-10-27T10:33:34Z</time>
      </trkpt>
      <trkpt lat="46.2798" lon="6.62441">
        <ele>782.78198242188</ele>
        <time>2019-10-27T10:33:42Z</time>
      </trkpt>
      <trkpt lat="46.27988" lon="6.62437">
        <ele>775.22198486328</ele>
        <time>2019-10-27T10:33:53Z</time>
      </trkpt>
      <trkpt lat="46.27995" lon="6.62436">
        <ele>779.93200683594</ele>
        <time>2019-10-27T10:33:59Z</time>
      </trkpt>
      <trkpt lat="46.28003" lon="6.62438">
        <ele>780.32501220703</ele>
        <time>2019-10-27T10:34:04Z</time>
      </trkpt>
      <trkpt lat="46.28011" lon="6.62439">
        <ele>789.69799804688</ele>
        <time>2019-10-27T10:34:09Z</time>
      </trkpt>
      <trkpt lat="46.28018" lon="6.62436">
        <ele>784.1259765625</ele>
        <time>2019-10-27T10:34:14Z</time>
      </trkpt>
      <trkpt lat="46.28025" lon="6.62433">
        <ele>789.08898925781</ele>
        <time>2019-10-27T10:34:20Z</time>
      </trkpt>
      <trkpt lat="46.28033" lon="6.62431">
        <ele>789.69598388672</ele>
        <time>2019-10-27T10:34:26Z</time>
      </trkpt>
      <trkpt lat="46.2804" lon="6.62429">
        <ele>795.14300537109</ele>
        <time>2019-10-27T10:34:32Z</time>
      </trkpt>
      <trkpt lat="46.28056" lon="6.62429">
        <ele>800.15899658203</ele>
        <time>2019-10-27T10:34:42Z</time>
      </trkpt>
      <trkpt lat="46.28064" lon="6.6243">
        <ele>799.90802001953</ele>
        <time>2019-10-27T10:34:48Z</time>
      </trkpt>
      <trkpt lat="46.28072" lon="6.6243">
        <ele>801.11602783203</ele>
        <time>2019-10-27T10:34:53Z</time>
      </trkpt>
      <trkpt lat="46.2808" lon="6.6243">
        <ele>793.15698242188</ele>
        <time>2019-10-27T10:35:02Z</time>
      </trkpt>
      <trkpt lat="46.28087" lon="6.6243">
        <ele>790.66497802734</ele>
        <time>2019-10-27T10:35:07Z</time>
      </trkpt>
      <trkpt lat="46.28095" lon="6.62427">
        <ele>799.35498046875</ele>
        <time>2019-10-27T10:35:13Z</time>
      </trkpt>
      <trkpt lat="46.28102" lon="6.62426">
        <ele>800.82501220703</ele>
        <time>2019-10-27T10:35:18Z</time>
      </trkpt>
      <trkpt lat="46.28268" lon="6.625">
        <ele>747.97497558594</ele>
        <time>2019-10-27T10:37:26Z</time>
      </trkpt>
      <trkpt lat="46.28267" lon="6.62487">
        <ele>748.2080078125</ele>
        <time>2019-10-27T10:37:27Z</time>
      </trkpt>
      <trkpt lat="46.28266" lon="6.62463">
        <ele>758.99102783203</ele>
        <time>2019-10-27T10:37:36Z</time>
      </trkpt>
      <trkpt lat="46.28273" lon="6.62466">
        <ele>772.09899902344</ele>
        <time>2019-10-27T10:37:58Z</time>
      </trkpt>
      <trkpt lat="46.28278" lon="6.62475">
        <ele>780.84899902344</ele>
        <time>2019-10-27T10:38:10Z</time>
      </trkpt>
      <trkpt lat="46.28285" lon="6.6248">
        <ele>792.00799560547</ele>
        <time>2019-10-27T10:38:19Z</time>
      </trkpt>
      <trkpt lat="46.28292" lon="6.62486">
        <ele>792.02801513672</ele>
        <time>2019-10-27T10:38:26Z</time>
      </trkpt>
      <trkpt lat="46.28299" lon="6.62487">
        <ele>792.90100097656</ele>
        <time>2019-10-27T10:38:31Z</time>
      </trkpt>
      <trkpt lat="46.28307" lon="6.62488">
        <ele>789.68298339844</ele>
        <time>2019-10-27T10:38:37Z</time>
      </trkpt>
      <trkpt lat="46.28405" lon="6.6252">
        <ele>747.89001464844</ele>
        <time>2019-10-27T10:39:42Z</time>
      </trkpt>
      <trkpt lat="46.28398" lon="6.62516">
        <ele>748.49102783203</ele>
        <time>2019-10-27T10:39:47Z</time>
      </trkpt>
      <trkpt lat="46.28386" lon="6.62504">
        <ele>750.71600341797</ele>
        <time>2019-10-27T10:39:51Z</time>
      </trkpt>
      <trkpt lat="46.28379" lon="6.62497">
        <ele>755.38598632812</ele>
        <time>2019-10-27T10:39:55Z</time>
      </trkpt>
      <trkpt lat="46.28368" lon="6.62482">
        <ele>764.59497070312</ele>
        <time>2019-10-27T10:40:08Z</time>
      </trkpt>
      <trkpt lat="46.28368" lon="6.62492">
        <ele>791.89599609375</ele>
        <time>2019-10-27T10:40:48Z</time>
      </trkpt>
      <trkpt lat="46.28368" lon="6.62503">
        <ele>782.05798339844</ele>
        <time>2019-10-27T10:40:56Z</time>
      </trkpt>
      <trkpt lat="46.28362" lon="6.62511">
        <ele>808.916015625</ele>
        <time>2019-10-27T10:41:05Z</time>
      </trkpt>
      <trkpt lat="46.28358" lon="6.6252">
        <ele>793.37902832031</ele>
        <time>2019-10-27T10:41:15Z</time>
      </trkpt>
      <trkpt lat="46.28353" lon="6.62528">
        <ele>789.57299804688</ele>
        <time>2019-10-27T10:41:23Z</time>
      </trkpt>
      <trkpt lat="46.28349" lon="6.62538">
        <ele>783.70300292969</ele>
        <time>2019-10-27T10:41:33Z</time>
      </trkpt>
      <trkpt lat="46.28419" lon="6.62511">
        <ele>749.32202148438</ele>
        <time>2019-10-27T10:43:34Z</time>
      </trkpt>
      <trkpt lat="46.28426" lon="6.62513">
        <ele>751.67700195312</ele>
        <time>2019-10-27T10:43:38Z</time>
      </trkpt>
      <trkpt lat="46.28432" lon="6.62504">
        <ele>754.93298339844</ele>
        <time>2019-10-27T10:43:45Z</time>
      </trkpt>
      <trkpt lat="46.28433" lon="6.62492">
        <ele>763.63500976562</ele>
        <time>2019-10-27T10:43:59Z</time>
      </trkpt>
      <trkpt lat="46.28431" lon="6.62481">
        <ele>762.85998535156</ele>
        <time>2019-10-27T10:44:06Z</time>
      </trkpt>
      <trkpt lat="46.28431" lon="6.62469">
        <ele>764.26202392578</ele>
        <time>2019-10-27T10:44:12Z</time>
      </trkpt>
      <trkpt lat="46.2843" lon="6.62459">
        <ele>760.51501464844</ele>
        <time>2019-10-27T10:44:18Z</time>
      </trkpt>
      <trkpt lat="46.28427" lon="6.62449">
        <ele>768.55401611328</ele>
        <time>2019-10-27T10:44:26Z</time>
      </trkpt>
      <trkpt lat="46.28433" lon="6.62443">
        <ele>769.39001464844</ele>
        <time>2019-10-27T10:44:40Z</time>
      </trkpt>
      <trkpt lat="46.28552" lon="6.62605">
        <ele>747.97100830078</ele>
        <time>2019-10-27T10:48:17Z</time>
      </trkpt>
      <trkpt lat="46.28548" lon="6.62596">
        <ele>753.15502929688</ele>
        <time>2019-10-27T10:48:25Z</time>
      </trkpt>
      <trkpt lat="46.28543" lon="6.62588">
        <ele>755.32800292969</ele>
        <time>2019-10-27T10:48:35Z</time>
      </trkpt>
      <trkpt lat="46.2854" lon="6.62578">
        <ele>779.65502929688</ele>
        <time>2019-10-27T10:49:00Z</time>
      </trkpt>
      <trkpt lat="46.28544" lon="6.62569">
        <ele>802.03002929688</ele>
        <time>2019-10-27T10:49:43Z</time>
      </trkpt>
      <trkpt lat="46.28544" lon="6.62558">
        <ele>795.91198730469</ele>
        <time>2019-10-27T10:50:22Z</time>
      </trkpt>
      <trkpt lat="46.28548" lon="6.62549">
        <ele>815.03497314453</ele>
        <time>2019-10-27T10:50:53Z</time>
      </trkpt>
      <trkpt lat="46.28543" lon="6.62542">
        <ele>830.53399658203</ele>
        <time>2019-10-27T10:51:21Z</time>
      </trkpt>
      <trkpt lat="46.28537" lon="6.62534">
        <ele>815.791015625</ele>
        <time>2019-10-27T10:51:43Z</time>
      </trkpt>
      <trkpt lat="46.28613" lon="6.62657">
        <ele>749.46697998047</ele>
        <time>2019-10-27T10:54:16Z</time>
      </trkpt>
      <trkpt lat="46.28605" lon="6.62659">
        <ele>749.14599609375</ele>
        <time>2019-10-27T10:54:19Z</time>
      </trkpt>
      <trkpt lat="46.28595" lon="6.62651">
        <ele>757.55200195312</ele>
        <time>2019-10-27T10:54:22Z</time>
      </trkpt>
      <trkpt lat="46.28589" lon="6.62645">
        <ele>766.92999267578</ele>
        <time>2019-10-27T10:54:28Z</time>
      </trkpt>
      <trkpt lat="46.28582" lon="6.62641">
        <ele>775.26702880859</ele>
        <time>2019-10-27T10:54:43Z</time>
      </trkpt>
      <trkpt lat="46.28582" lon="6.62629">
        <ele>787.26397705078</ele>
        <time>2019-10-27T10:54:58Z</time>
      </trkpt>
      <trkpt lat="46.28582" lon="6.62618">
        <ele>802.02801513672</ele>
        <time>2019-10-27T10:55:09Z</time>
      </trkpt>
      <trkpt lat="46.28597" lon="6.62625">
        <ele>755.52600097656</ele>
        <time>2019-10-27T10:57:05Z</time>
      </trkpt>
      <trkpt lat="46.28591" lon="6.62637">
        <ele>777.07800292969</ele>
        <time>2019-10-27T10:57:11Z</time>
      </trkpt>
      <trkpt lat="46.28585" lon="6.62645">
        <ele>811.27301025391</ele>
        <time>2019-10-27T10:57:32Z</time>
      </trkpt>
      <trkpt lat="46.28583" lon="6.62656">
        <ele>801.91302490234</ele>
        <time>2019-10-27T10:57:38Z</time>
      </trkpt>
      <trkpt lat="46.2858" lon="6.62665">
        <ele>805.19799804688</ele>
        <time>2019-10-27T10:57:43Z</time>
      </trkpt>
      <trkpt lat="46.28577" lon="6.62675">
        <ele>817.7490234375</ele>
        <time>2019-10-27T10:57:48Z</time>
      </trkpt>
      <trkpt lat="46.28575" lon="6.62687">
        <ele>841.33099365234</ele>
        <time>2019-10-27T10:57:55Z</time>
      </trkpt>
      <trkpt lat="46.28577" lon="6.62697">
        <ele>854.7509765625</ele>
        <time>2019-10-27T10:58:03Z</time>
      </trkpt>
      <trkpt lat="46.28581" lon="6.62707">
        <ele>858.15197753906</ele>
        <time>2019-10-27T10:58:10Z</time>
      </trkpt>
      <trkpt lat="46.28582" lon="6.62718">
        <ele>862.69097900391</ele>
        <time>2019-10-27T10:58:18Z</time>
      </trkpt>
      <trkpt lat="46.28586" lon="6.62727">
        <ele>850.73297119141</ele>
        <time>2019-10-27T10:58:25Z</time>
      </trkpt>
      <trkpt lat="46.28656" lon="6.63026">
        <ele>1073.3509521484</ele>
        <time>2019-10-27T11:02:31Z</time>
      </trkpt>
      <trkpt lat="46.28649" lon="6.63025">
        <ele>1099.2619628906</ele>
        <time>2019-10-27T11:02:42Z</time>
      </trkpt>
      <trkpt lat="46.28644" lon="6.63034">
        <ele>1087.7430419922</ele>
        <time>2019-10-27T11:03:20Z</time>
      </trkpt>
      <trkpt lat="46.2864" lon="6.63043">
        <ele>1080.6629638672</ele>
        <time>2019-10-27T11:03:38Z</time>
      </trkpt>
      <trkpt lat="46.28632" lon="6.63045">
        <ele>1072.4530029297</ele>
        <time>2019-10-27T11:04:01Z</time>
      </trkpt>
      <trkpt lat="46.28627" lon="6.63037">
        <ele>1077.5989990234</ele>
        <time>2019-10-27T11:04:15Z</time>
      </trkpt>
      <trkpt lat="46.28508" lon="6.63016">
        <ele>1078.7569580078</ele>
        <time>2019-10-27T11:06:10Z</time>
      </trkpt>
      <trkpt lat="46.28506" lon="6.63004">
        <ele>1081.1820068359</ele>
        <time>2019-10-27T11:06:17Z</time>
      </trkpt>
      <trkpt lat="46.28507" lon="6.62994">
        <ele>1088.126953125</ele>
        <time>2019-10-27T11:06:38Z</time>
      </trkpt>
      <trkpt lat="46.28507" lon="6.62983">
        <ele>1084.7700195312</ele>
        <time>2019-10-27T11:07:01Z</time>
      </trkpt>
      <trkpt lat="46.285" lon="6.62979">
        <ele>1081.6300048828</ele>
        <time>2019-10-27T11:07:13Z</time>
      </trkpt>
      <trkpt lat="46.28492" lon="6.62977">
        <ele>1074.3659667969</ele>
        <time>2019-10-27T11:07:25Z</time>
      </trkpt>
      <trkpt lat="46.28437" lon="6.62994">
        <ele>1070.9809570312</ele>
        <time>2019-10-27T11:09:54Z</time>
      </trkpt>
      <trkpt lat="46.28438" lon="6.62984">
        <ele>1077.1390380859</ele>
        <time>2019-10-27T11:10:06Z</time>
      </trkpt>
      <trkpt lat="46.28432" lon="6.62977">
        <ele>1090.1379394531</ele>
        <time>2019-10-27T11:10:27Z</time>
      </trkpt>
      <trkpt lat="46.28426" lon="6.62972">
        <ele>1100.9250488281</ele>
        <time>2019-10-27T11:10:52Z</time>
      </trkpt>
      <trkpt lat="46.28419" lon="6.62967">
        <ele>1104.3399658203</ele>
        <time>2019-10-27T11:11:15Z</time>
      </trkpt>
      <trkpt lat="46.28415" lon="6.62958">
        <ele>1044.1560058594</ele>
        <time>2019-10-27T11:11:42Z</time>
      </trkpt>
      <trkpt lat="46.28409" lon="6.62964">
        <ele>879.97497558594</ele>
        <time>2019-10-27T11:12:44Z</time>
      </trkpt>
      <trkpt lat="46.28406" lon="6.62974">
        <ele>950.85101318359</ele>
        <time>2019-10-27T11:12:59Z</time>
      </trkpt>
      <trkpt lat="46.28408" lon="6.62985">
        <ele>888.36602783203</ele>
        <time>2019-10-27T11:13:12Z</time>
      </trkpt>
      <trkpt lat="46.28668" lon="6.63585">
        <ele>763.19598388672</ele>
        <time>2019-10-27T11:28:55Z</time>
      </trkpt>
      <trkpt lat="46.2866" lon="6.63586">
        <ele>782.87200927734</ele>
        <time>2019-10-27T11:28:59Z</time>
      </trkpt>
      <trkpt lat="46.28651" lon="6.63601">
        <ele>978.24597167969</ele>
        <time>2019-10-27T11:29:09Z</time>
      </trkpt>
      <trkpt lat="46.28653" lon="6.63613">
        <ele>1006.3759765625</ele>
        <time>2019-10-27T11:29:16Z</time>
      </trkpt>
      <trkpt lat="46.28651" lon="6.63625">
        <ele>962.50897216797</ele>
        <time>2019-10-27T11:29:22Z</time>
      </trkpt>
      <trkpt lat="46.2865" lon="6.63636">
        <ele>927.833984375</ele>
        <time>2019-10-27T11:29:31Z</time>
      </trkpt>
      <trkpt lat="46.28652" lon="6.63648">
        <ele>1093.3189697266</ele>
        <time>2019-10-27T11:29:45Z</time>
      </trkpt>
      <trkpt lat="46.28652" lon="6.6367">
        <ele>1267.4990234375</ele>
        <time>2019-10-27T11:29:53Z</time>
      </trkpt>
      <trkpt lat="46.28655" lon="6.63693">
        <ele>1271.4630126953</ele>
        <time>2019-10-27T11:30:03Z</time>
      </trkpt>
      <trkpt lat="46.28655" lon="6.63703">
        <ele>1270.4200439453</ele>
        <time>2019-10-27T11:30:13Z</time>
      </trkpt>
      <trkpt lat="46.28701" lon="6.63883">
        <ele>1271.1149902344</ele>
        <time>2019-10-27T11:31:54Z</time>
      </trkpt>
      <trkpt lat="46.28702" lon="6.63894">
        <ele>1268.3990478516</ele>
        <time>2019-10-27T11:32:01Z</time>
      </trkpt>
      <trkpt lat="46.28701" lon="6.63905">
        <ele>1269.0290527344</ele>
        <time>2019-10-27T11:32:08Z</time>
      </trkpt>
      <trkpt lat="46.287" lon="6.63917">
        <ele>1267.5600585938</ele>
        <time>2019-10-27T11:32:15Z</time>
      </trkpt>
      <trkpt lat="46.28699" lon="6.63928">
        <ele>1267.4090576172</ele>
        <time>2019-10-27T11:32:21Z</time>
      </trkpt>
      <trkpt lat="46.28699" lon="6.6394">
        <ele>1267.3170166016</ele>
        <time>2019-10-27T11:32:27Z</time>
      </trkpt>
      <trkpt lat="46.28699" lon="6.63951">
        <ele>1266.5660400391</ele>
        <time>2019-10-27T11:32:33Z</time>
      </trkpt>
      <trkpt lat="46.28704" lon="6.63959">
        <ele>1261.2810058594</ele>
        <time>2019-10-27T11:32:41Z</time>
      </trkpt>
      <trkpt lat="46.28702" lon="6.6397">
        <ele>1260.833984375</ele>
        <time>2019-10-27T11:32:47Z</time>
      </trkpt>
      <trkpt lat="46.28701" lon="6.6398">
        <ele>1260.376953125</ele>
        <time>2019-10-27T11:32:52Z</time>
      </trkpt>
      <trkpt lat="46.28699" lon="6.63992">
        <ele>1266.3220214844</ele>
        <time>2019-10-27T11:32:59Z</time>
      </trkpt>
      <trkpt lat="46.28698" lon="6.64003">
        <ele>1265.623046875</ele>
        <time>2019-10-27T11:33:06Z</time>
      </trkpt>
      <trkpt lat="46.28695" lon="6.64013">
        <ele>1267.1419677734</ele>
        <time>2019-10-27T11:33:11Z</time>
      </trkpt>
      <trkpt lat="46.28693" lon="6.64024">
        <ele>1267.123046875</ele>
        <time>2019-10-27T11:33:16Z</time>
      </trkpt>
      <trkpt lat="46.28701" lon="6.64273">
        <ele>1260.3620605469</ele>
        <time>2019-10-27T11:36:41Z</time>
      </trkpt>
      <trkpt lat="46.28698" lon="6.64262">
        <ele>1265.8499755859</ele>
        <time>2019-10-27T11:36:45Z</time>
      </trkpt>
      <trkpt lat="46.28702" lon="6.64252">
        <ele>1264.8759765625</ele>
        <time>2019-10-27T11:37:03Z</time>
      </trkpt>
      <trkpt lat="46.28709" lon="6.64255">
        <ele>1267.6739501953</ele>
        <time>2019-10-27T11:37:27Z</time>
      </trkpt>
      <trkpt lat="46.28717" lon="6.64254">
        <ele>1269.9689941406</ele>
        <time>2019-10-27T11:37:37Z</time>
      </trkpt>
      <trkpt lat="46.28858" lon="6.64381">
        <ele>1332.2719726562</ele>
        <time>2019-10-27T11:42:26Z</time>
      </trkpt>
      <trkpt lat="46.28865" lon="6.64386">
        <ele>1096.5930175781</ele>
        <time>2019-10-27T11:42:33Z</time>
      </trkpt>
      <trkpt lat="46.28866" lon="6.64397">
        <ele>1156.2380371094</ele>
        <time>2019-10-27T11:42:47Z</time>
      </trkpt>
      <trkpt lat="46.28873" lon="6.64405">
        <ele>1152.3380126953</ele>
        <time>2019-10-27T11:42:55Z</time>
      </trkpt>
      <trkpt lat="46.28877" lon="6.64415">
        <ele>1126.4090576172</ele>
        <time>2019-10-27T11:43:03Z</time>
      </trkpt>
      <trkpt lat="46.2888" lon="6.64424">
        <ele>1143.1910400391</ele>
        <time>2019-10-27T11:43:10Z</time>
      </trkpt>
      <trkpt lat="46.28883" lon="6.64434">
        <ele>1103.8850097656</ele>
        <time>2019-10-27T11:43:17Z</time>
      </trkpt>
      <trkpt lat="46.28888" lon="6.64443">
        <ele>1084.3869628906</ele>
        <time>2019-10-27T11:43:27Z</time>
      </trkpt>
      <trkpt lat="46.28892" lon="6.64453">
        <ele>1065.1760253906</ele>
        <time>2019-10-27T11:43:39Z</time>
      </trkpt>
      <trkpt lat="46.28927" lon="6.64542">
        <ele>1211.7130126953</ele>
        <time>2019-10-27T11:46:51Z</time>
      </trkpt>
      <trkpt lat="46.28919" lon="6.64547">
        <ele>1359.0009765625</ele>
        <time>2019-10-27T11:46:54Z</time>
      </trkpt>
      <trkpt lat="46.28925" lon="6.64554">
        <ele>1360.8449707031</ele>
        <time>2019-10-27T11:47:36Z</time>
      </trkpt>
      <trkpt lat="46.2893" lon="6.64562">
        <ele>1361.4599609375</ele>
        <time>2019-10-27T11:47:49Z</time>
      </trkpt>
      <trkpt lat="46.29701" lon="6.64729">
        <ele>1631.5799560547</ele>
        <time>2019-10-27T12:06:52Z</time>
      </trkpt>
      <trkpt lat="46.29708" lon="6.64733">
        <ele>1635.0570068359</ele>
        <time>2019-10-27T12:07:15Z</time>
      </trkpt>
      <trkpt lat="46.29712" lon="6.64723">
        <ele>1635.9680175781</ele>
        <time>2019-10-27T12:07:28Z</time>
      </trkpt>
      <trkpt lat="46.29712" lon="6.64712">
        <ele>1636.3010253906</ele>
        <time>2019-10-27T12:07:35Z</time>
      </trkpt>
      <trkpt lat="46.29719" lon="6.64709">
        <ele>1635.7370605469</ele>
        <time>2019-10-27T12:07:45Z</time>
      </trkpt>
      <trkpt lat="46.29727" lon="6.64705">
        <ele>1636.9420166016</ele>
        <time>2019-10-27T12:07:53Z</time>
      </trkpt>
      <trkpt lat="46.29725" lon="6.64694">
        <ele>1638.3260498047</ele>
        <time>2019-10-27T12:08:00Z</time>
      </trkpt>
      <trkpt lat="46.29722" lon="6.64684">
        <ele>1639.1789550781</ele>
        <time>2019-10-27T12:08:07Z</time>
      </trkpt>
      <trkpt lat="46.29719" lon="6.64675">
        <ele>1644.8239746094</ele>
        <time>2019-10-27T12:08:17Z</time>
      </trkpt>
      <trkpt lat="46.29715" lon="6.64664">
        <ele>1645.1770019531</ele>
        <time>2019-10-27T12:08:23Z</time>
      </trkpt>
      <trkpt lat="46.29683" lon="6.64575">
        <ele>1661.2829589844</ele>
        <time>2019-10-27T12:10:03Z</time>
      </trkpt>
      <trkpt lat="46.29678" lon="6.64566">
        <ele>1657.5200195312</ele>
        <time>2019-10-27T12:10:13Z</time>
      </trkpt>
      <trkpt lat="46.29675" lon="6.64556">
        <ele>1649.4890136719</ele>
        <time>2019-10-27T12:10:24Z</time>
      </trkpt>
      <trkpt lat="46.29674" lon="6.64545">
        <ele>1651.9799804688</ele>
        <time>2019-10-27T12:10:30Z</time>
      </trkpt>
      <trkpt lat="46.29676" lon="6.64535">
        <ele>1647.9639892578</ele>
        <time>2019-10-27T12:10:39Z</time>
      </trkpt>
      <trkpt lat="46.29684" lon="6.6454">
        <ele>1648.5350341797</ele>
        <time>2019-10-27T12:10:55Z</time>
      </trkpt>
      <trkpt lat="46.29692" lon="6.64546">
        <ele>1657.8060302734</ele>
        <time>2019-10-27T12:11:05Z</time>
      </trkpt>
      <trkpt lat="46.30029" lon="6.64482">
        <ele>1885.1689453125</ele>
        <time>2019-10-27T12:26:07Z</time>
      </trkpt>
      <trkpt lat="46.30035" lon="6.64475">
        <ele>1874.9949951172</ele>
        <time>2019-10-27T12:26:11Z</time>
      </trkpt>
      <trkpt lat="46.30119" lon="6.64377">
        <ele>1638.1760253906</ele>
        <time>2019-10-27T13:13:04Z</time>
      </trkpt>
      <trkpt lat="46.30113" lon="6.64384">
        <ele>1638.5939941406</ele>
        <time>2019-10-27T13:13:26Z</time>
      </trkpt>
      <trkpt lat="46.30108" lon="6.64391">
        <ele>1640.3909912109</ele>
        <time>2019-10-27T13:13:40Z</time>
      </trkpt>
      <trkpt lat="46.30102" lon="6.64398">
        <ele>1854.6350097656</ele>
        <time>2019-10-27T13:13:56Z</time>
      </trkpt>
      <trkpt lat="46.30096" lon="6.64405">
        <ele>1853.1319580078</ele>
        <time>2019-10-27T13:14:10Z</time>
      </trkpt>
      <trkpt lat="46.29701" lon="6.64837">
        <ele>1495.9200439453</ele>
        <time>2019-10-27T13:34:19Z</time>
      </trkpt>
      <trkpt lat="46.29695" lon="6.64846">
        <ele>1506.4820556641</ele>
        <time>2019-10-27T13:34:55Z</time>
      </trkpt>
      <trkpt lat="46.29689" lon="6.64854">
        <ele>1495.3129882812</ele>
        <time>2019-10-27T13:35:02Z</time>
      </trkpt>
      <trkpt lat="46.29681" lon="6.64874">
        <ele>1587.5849609375</ele>
        <time>2019-10-27T13:35:12Z</time>
      </trkpt>
      <trkpt lat="46.29674" lon="6.64895">
        <ele>1615.9520263672</ele>
        <time>2019-10-27T13:35:22Z</time>
      </trkpt>
      <trkpt lat="46.29635" lon="6.6481">
        <ele>1379.1500244141</ele>
        <time>2019-10-27T13:36:44Z</time>
      </trkpt>
      <trkpt lat="46.29627" lon="6.6481">
        <ele>1380.3809814453</ele>
        <time>2019-10-27T13:37:14Z</time>
      </trkpt>
      <trkpt lat="46.29621" lon="6.64802">
        <ele>1381.083984375</ele>
        <time>2019-10-27T13:37:20Z</time>
      </trkpt>
      <trkpt lat="46.29614" lon="6.64797">
        <ele>1382.0260009766</ele>
        <time>2019-10-27T13:37:25Z</time>
      </trkpt>
      <trkpt lat="46.29607" lon="6.64793">
        <ele>1383.4150390625</ele>
        <time>2019-10-27T13:37:30Z</time>
      </trkpt>
      <trkpt lat="46.29599" lon="6.64791">
        <ele>1383.4100341797</ele>
        <time>2019-10-27T13:37:35Z</time>
      </trkpt>
      <trkpt lat="46.29592" lon="6.64785">
        <ele>1383.8699951172</ele>
        <time>2019-10-27T13:37:40Z</time>
      </trkpt>
      <trkpt lat="46.29584" lon="6.6478">
        <ele>1384.6390380859</ele>
        <time>2019-10-27T13:37:45Z</time>
      </trkpt>
      <trkpt lat="46.29576" lon="6.64775">
        <ele>1386.9870605469</ele>
        <time>2019-10-27T13:37:50Z</time>
      </trkpt>
      <trkpt lat="46.29569" lon="6.64772">
        <ele>1397.2939453125</ele>
        <time>2019-10-27T13:37:55Z</time>
      </trkpt>
      <trkpt lat="46.29561" lon="6.64774">
        <ele>1410.0610351562</ele>
        <time>2019-10-27T13:38:01Z</time>
      </trkpt>
      <trkpt lat="46.29554" lon="6.64775">
        <ele>1532.6340332031</ele>
        <time>2019-10-27T13:38:35Z</time>
      </trkpt>
      <trkpt lat="46.29547" lon="6.64769">
        <ele>1535.4809570312</ele>
        <time>2019-10-27T13:38:42Z</time>
      </trkpt>
      <trkpt lat="46.2954" lon="6.64762">
        <ele>1537.7889404297</ele>
        <time>2019-10-27T13:38:48Z</time>
      </trkpt>
      <trkpt lat="46.29533" lon="6.64757">
        <ele>1541.3070068359</ele>
        <time>2019-10-27T13:38:53Z</time>
      </trkpt>
      <trkpt lat="46.29526" lon="6.64753">
        <ele>1545.7790527344</ele>
        <time>2019-10-27T13:38:59Z</time>
      </trkpt>
      <trkpt lat="46.2908" lon="6.64633">
        <ele>1278.6090087891</ele>
        <time>2019-10-27T13:46:21Z</time>
      </trkpt>
      <trkpt lat="46.29072" lon="6.64636">
        <ele>1303.1850585938</ele>
        <time>2019-10-27T13:47:10Z</time>
      </trkpt>
      <trkpt lat="46.29064" lon="6.64634">
        <ele>1398.7960205078</ele>
        <time>2019-10-27T13:47:33Z</time>
      </trkpt>
      <trkpt lat="46.29058" lon="6.64628">
        <ele>1397.6419677734</ele>
        <time>2019-10-27T13:47:38Z</time>
      </trkpt>
      <trkpt lat="46.29051" lon="6.64622">
        <ele>1408.9539794922</ele>
        <time>2019-10-27T13:47:45Z</time>
      </trkpt>
      <trkpt lat="46.29047" lon="6.64612">
        <ele>1406.5660400391</ele>
        <time>2019-10-27T13:47:55Z</time>
      </trkpt>
      <trkpt lat="46.2904" lon="6.64607">
        <ele>1413.5489501953</ele>
        <time>2019-10-27T13:48:04Z</time>
      </trkpt>
      <trkpt lat="46.29036" lon="6.64598">
        <ele>1413.5899658203</ele>
        <time>2019-10-27T13:48:14Z</time>
      </trkpt>
      <trkpt lat="46.2903" lon="6.64591">
        <ele>1393.6870117188</ele>
        <time>2019-10-27T13:48:24Z</time>
      </trkpt>
      <trkpt lat="46.29007" lon="6.64585">
        <ele>1313.8139648438</ele>
        <time>2019-10-27T13:48:43Z</time>
      </trkpt>
      <trkpt lat="46.29003" lon="6.64593">
        <ele>1310.3199462891</ele>
        <time>2019-10-27T13:48:49Z</time>
      </trkpt>
      <trkpt lat="46.28995" lon="6.64589">
        <ele>1318.6209716797</ele>
        <time>2019-10-27T13:48:59Z</time>
      </trkpt>
      <trkpt lat="46.28989" lon="6.64584">
        <ele>1342.3570556641</ele>
        <time>2019-10-27T13:49:07Z</time>
      </trkpt>
      <trkpt lat="46.28982" lon="6.64588">
        <ele>1338.5649414062</ele>
        <time>2019-10-27T13:49:14Z</time>
      </trkpt>
      <trkpt lat="46.28976" lon="6.64594">
        <ele>1321.1949462891</ele>
        <time>2019-10-27T13:49:28Z</time>
      </trkpt>
      <trkpt lat="46.28968" lon="6.64592">
        <ele>1329.9460449219</ele>
        <time>2019-10-27T13:49:35Z</time>
      </trkpt>
      <trkpt lat="46.28963" lon="6.64586">
        <ele>1317.0290527344</ele>
        <time>2019-10-27T13:49:44Z</time>
      </trkpt>
      <trkpt lat="46.28957" lon="6.64578">
        <ele>1324.4899902344</ele>
        <time>2019-10-27T13:49:52Z</time>
      </trkpt>
      <trkpt lat="46.28957" lon="6.64567">
        <ele>1315.6419677734</ele>
        <time>2019-10-27T13:49:59Z</time>
      </trkpt>
      <trkpt lat="46.28952" lon="6.64559">
        <ele>1313.1639404297</ele>
        <time>2019-10-27T13:50:08Z</time>
      </trkpt>
      <trkpt lat="46.28946" lon="6.64554">
        <ele>1331.2199707031</ele>
        <time>2019-10-27T13:50:19Z</time>
      </trkpt>
      <trkpt lat="46.28938" lon="6.64548">
        <ele>1301</ele>
        <time>2019-10-27T13:50:27Z</time>
      </trkpt>
      <trkpt lat="46.28935" lon="6.64538">
        <ele>1307.5799560547</ele>
        <time>2019-10-27T13:50:45Z</time>
      </trkpt>
      <trkpt lat="46.28929" lon="6.64532">
        <ele>1291.8649902344</ele>
        <time>2019-10-27T13:51:13Z</time>
      </trkpt>
      <trkpt lat="46.28926" lon="6.64521">
        <ele>1291.58203125</ele>
        <time>2019-10-27T13:51:21Z</time>
      </trkpt>
      <trkpt lat="46.28925" lon="6.64511">
        <ele>1302.3430175781</ele>
        <time>2019-10-27T13:51:34Z</time>
      </trkpt>
      <trkpt lat="46.2892" lon="6.64502">
        <ele>1297.1860351562</ele>
        <time>2019-10-27T13:51:45Z</time>
      </trkpt>
      <trkpt lat="46.28913" lon="6.64496">
        <ele>1307.9759521484</ele>
        <time>2019-10-27T13:51:56Z</time>
      </trkpt>
      <trkpt lat="46.28911" lon="6.64486">
        <ele>1293.5119628906</ele>
        <time>2019-10-27T13:52:06Z</time>
      </trkpt>
      <trkpt lat="46.2891" lon="6.64474">
        <ele>1288.3409423828</ele>
        <time>2019-10-27T13:52:18Z</time>
      </trkpt>
      <trkpt lat="46.28905" lon="6.64467">
        <ele>1286.9639892578</ele>
        <time>2019-10-27T13:52:27Z</time>
      </trkpt>
      <trkpt lat="46.28902" lon="6.64457">
        <ele>1293.0040283203</ele>
        <time>2019-10-27T13:52:54Z</time>
      </trkpt>
      <trkpt lat="46.28898" lon="6.64447">
        <ele>1286.7189941406</ele>
        <time>2019-10-27T13:52:57Z</time>
      </trkpt>
      <trkpt lat="46.28895" lon="6.64437">
        <ele>1291.2609863281</ele>
        <time>2019-10-27T13:53:01Z</time>
      </trkpt>
      <trkpt lat="46.2889" lon="6.64416">
        <ele>1288.6820068359</ele>
        <time>2019-10-27T13:53:10Z</time>
      </trkpt>
      <trkpt lat="46.28395" lon="6.63513">
        <ele>748.32299804688</ele>
        <time>2019-10-27T14:18:56Z</time>
      </trkpt>
      <trkpt lat="46.28391" lon="6.63556">
        <ele>748.9990234375</ele>
        <time>2019-10-27T14:19:44Z</time>
      </trkpt>
      <trkpt lat="46.28392" lon="6.63567">
        <ele>1254.3530273438</ele>
        <time>2019-10-27T14:19:55Z</time>
      </trkpt>
      <trkpt lat="46.28393" lon="6.63579">
        <ele>1254.4909667969</ele>
        <time>2019-10-27T14:20:05Z</time>
      </trkpt>
      <trkpt lat="46.28234" lon="6.6355">
        <ele>1086.5909423828</ele>
        <time>2019-10-27T14:24:48Z</time>
      </trkpt>
      <trkpt lat="46.28233" lon="6.63539">
        <ele>1093.1130371094</ele>
        <time>2019-10-27T14:24:51Z</time>
      </trkpt>
      <trkpt lat="46.2823" lon="6.63528">
        <ele>1093.0240478516</ele>
        <time>2019-10-27T14:24:56Z</time>
      </trkpt>
      <trkpt lat="46.28227" lon="6.63518">
        <ele>1092.9670410156</ele>
        <time>2019-10-27T14:25:26Z</time>
      </trkpt>
      <trkpt lat="46.28222" lon="6.6351">
        <ele>1091.625</ele>
        <time>2019-10-27T14:25:33Z</time>
      </trkpt>
      <trkpt lat="46.28219" lon="6.635">
        <ele>1089.5830078125</ele>
        <time>2019-10-27T14:25:41Z</time>
      </trkpt>
      <trkpt lat="46.28212" lon="6.63495">
        <ele>1087.8449707031</ele>
        <time>2019-10-27T14:25:49Z</time>
      </trkpt>
      <trkpt lat="46.28205" lon="6.63489">
        <ele>1086.2900390625</ele>
        <time>2019-10-27T14:25:55Z</time>
      </trkpt>
      <trkpt lat="46.28198" lon="6.63482">
        <ele>1087.5369873047</ele>
        <time>2019-10-27T14:26:00Z</time>
      </trkpt>
      <trkpt lat="46.28191" lon="6.6348">
        <ele>1084.7879638672</ele>
        <time>2019-10-27T14:26:05Z</time>
      </trkpt>
      <trkpt lat="46.28184" lon="6.63479">
        <ele>1081.5649414062</ele>
        <time>2019-10-27T14:26:10Z</time>
      </trkpt>
      <trkpt lat="46.28176" lon="6.63478">
        <ele>1081.8010253906</ele>
        <time>2019-10-27T14:26:15Z</time>
      </trkpt>
      <trkpt lat="46.28169" lon="6.63478">
        <ele>1077.8239746094</ele>
        <time>2019-10-27T14:26:20Z</time>
      </trkpt>
      <trkpt lat="46.28161" lon="6.6348">
        <ele>1075.8310546875</ele>
        <time>2019-10-27T14:26:25Z</time>
      </trkpt>
      <trkpt lat="46.28179" lon="6.632">
        <ele>747.96502685547</ele>
        <time>2019-10-27T14:31:26Z</time>
      </trkpt>
      <trkpt lat="46.2818" lon="6.63211">
        <ele>748.00402832031</ele>
        <time>2019-10-27T14:31:31Z</time>
      </trkpt>
      <trkpt lat="46.28177" lon="6.632">
        <ele>748.68902587891</ele>
        <time>2019-10-27T14:32:05Z</time>
      </trkpt>
      <trkpt lat="46.28176" lon="6.63189">
        <ele>749.99102783203</ele>
        <time>2019-10-27T14:32:13Z</time>
      </trkpt>
      <trkpt lat="46.28175" lon="6.63178">
        <ele>760.36901855469</ele>
        <time>2019-10-27T14:32:23Z</time>
      </trkpt>
      <trkpt lat="46.28174" lon="6.63167">
        <ele>773.4990234375</ele>
        <time>2019-10-27T14:32:29Z</time>
      </trkpt>
      <trkpt lat="46.28171" lon="6.63144">
        <ele>793.88702392578</ele>
        <time>2019-10-27T14:32:37Z</time>
      </trkpt>
      <trkpt lat="46.2817" lon="6.6312">
        <ele>827.70697021484</ele>
        <time>2019-10-27T14:32:45Z</time>
      </trkpt>
      <trkpt lat="46.28168" lon="6.63108">
        <ele>847.42602539062</ele>
        <time>2019-10-27T14:32:48Z</time>
      </trkpt>
      <trkpt lat="46.28166" lon="6.63097">
        <ele>861.98297119141</ele>
        <time>2019-10-27T14:32:51Z</time>
      </trkpt>
      <trkpt lat="46.28163" lon="6.63083">
        <ele>878.68402099609</ele>
        <time>2019-10-27T14:32:54Z</time>
      </trkpt>
      <trkpt lat="46.28159" lon="6.63072">
        <ele>890.81500244141</ele>
        <time>2019-10-27T14:32:56Z</time>
      </trkpt>
      <trkpt lat="46.28156" lon="6.63059">
        <ele>910.65600585938</ele>
        <time>2019-10-27T14:32:59Z</time>
      </trkpt>
      <trkpt lat="46.28149" lon="6.63038">
        <ele>925.78497314453</ele>
        <time>2019-10-27T14:33:07Z</time>
      </trkpt>
      <trkpt lat="46.28145" lon="6.63029">
        <ele>944.87902832031</ele>
        <time>2019-10-27T14:33:12Z</time>
      </trkpt>
      <trkpt lat="46.28146" lon="6.63018">
        <ele>965.86102294922</ele>
        <time>2019-10-27T14:33:19Z</time>
      </trkpt>
      <trkpt lat="46.28047" lon="6.62681">
        <ele>915.59997558594</ele>
        <time>2019-10-27T14:50:21Z</time>
      </trkpt>
      <trkpt lat="46.28047" lon="6.62667">
        <ele>906.01000976562</ele>
        <time>2019-10-27T14:50:23Z</time>
      </trkpt>
      <trkpt lat="46.28041" lon="6.62675">
        <ele>903.97802734375</ele>
        <time>2019-10-27T14:50:43Z</time>
      </trkpt>
      <trkpt lat="46.28039" lon="6.62664">
        <ele>898.77899169922</ele>
        <time>2019-10-27T14:50:55Z</time>
      </trkpt>
      <trkpt lat="46.28032" lon="6.62669">
        <ele>898.71197509766</ele>
        <time>2019-10-27T14:51:06Z</time>
      </trkpt>
      <trkpt lat="46.28026" lon="6.62678">
        <ele>897.49401855469</ele>
        <time>2019-10-27T14:51:12Z</time>
      </trkpt>
      <trkpt lat="46.28022" lon="6.62687">
        <ele>896.72100830078</ele>
        <time>2019-10-27T14:51:28Z</time>
      </trkpt>
      <trkpt lat="46.27359" lon="6.62545">
        <ele>750.26300048828</ele>
        <time>2019-10-27T15:03:07Z</time>
      </trkpt>
      <trkpt lat="46.27351" lon="6.62543">
        <ele>747.81097412109</ele>
        <time>2019-10-27T15:03:13Z</time>
      </trkpt>
      <trkpt lat="46.27342" lon="6.62547">
        <ele>748.77600097656</ele>
        <time>2019-10-27T15:03:18Z</time>
      </trkpt>
      <trkpt lat="46.27335" lon="6.62552">
        <ele>748.72698974609</ele>
        <time>2019-10-27T15:03:24Z</time>
      </trkpt>
      <trkpt lat="46.27327" lon="6.62555">
        <ele>747.78302001953</ele>
        <time>2019-10-27T15:03:31Z</time>
      </trkpt>
      <trkpt lat="46.27319" lon="6.62559">
        <ele>749.24401855469</ele>
        <time>2019-10-27T15:03:37Z</time>
      </trkpt>
      <trkpt lat="46.27312" lon="6.62565">
        <ele>750.87298583984</ele>
        <time>2019-10-27T15:03:43Z</time>
      </trkpt>
      <trkpt lat="46.27306" lon="6.62572">
        <ele>750.15802001953</ele>
        <time>2019-10-27T15:03:48Z</time>
      </trkpt>
      <trkpt lat="46.27299" lon="6.62579">
        <ele>751.60498046875</ele>
        <time>2019-10-27T15:03:55Z</time>
      </trkpt>
      <trkpt lat="46.27291" lon="6.62581">
        <ele>750.30200195312</ele>
        <time>2019-10-27T15:04:02Z</time>
      </trkpt>
      <trkpt lat="46.27284" lon="6.62581">
        <ele>748.72302246094</ele>
        <time>2019-10-27T15:04:08Z</time>
      </trkpt>
      <trkpt lat="46.27276" lon="6.62583">
        <ele>749.82000732422</ele>
        <time>2019-10-27T15:04:13Z</time>
      </trkpt>
      <trkpt lat="46.27268" lon="6.62583">
        <ele>753.99401855469</ele>
        <time>2019-10-27T15:04:18Z</time>
      </trkpt>
      <trkpt lat="46.27253" lon="6.62589">
        <ele>750.68798828125</ele>
        <time>2019-10-27T15:04:29Z</time>
      </trkpt>
      <trkpt lat="46.27247" lon="6.62598">
        <ele>749.73999023438</ele>
        <time>2019-10-27T15:04:35Z</time>
      </trkpt>
    </trkseg>
  </trk>
</gpx>